createdAt,value
2022-10-31T00:01:30.297Z,70.50
2022-10-31T00:03:58.206Z,77.40
2022-10-31T00:06:26.880Z,81.60
2022-10-31T00:09:01.175Z,88.30
2022-10-31T00:11:29.780Z,92.80
2022-10-31T00:13:59.796Z,84.40
2022-10-31T00:16:28.754Z,89.80
2022-10-31T00:18:59.589Z,87.00
2022-10-31T00:21:28.491Z,87.30
2022-10-31T00:23:56.452Z,79.80
2022-10-31T00:26:24.226Z,73.60
2022-10-31T00:28:52.333Z,83.90
2022-10-31T00:31:20.609Z,77.90
2022-10-31T00:33:48.358Z,71.00
2022-10-31T00:36:20.440Z,62.90
2022-10-31T00:38:49.163Z,64.90
2022-10-31T00:41:18.705Z,67.90
2022-10-31T00:43:47.187Z,75.90
2022-10-31T00:46:16.273Z,76.50
2022-10-31T00:48:44.347Z,73.20
2022-10-31T00:51:12.219Z,80.40
2022-10-31T00:53:41.205Z,72.70
2022-10-31T00:56:09.566Z,67.40
2022-10-31T00:58:37.406Z,69.50
2022-10-31T01:01:05.840Z,73.40
2022-10-31T01:03:36.165Z,68.60
2022-10-31T01:06:08.012Z,71.20
2022-10-31T01:08:37.219Z,63.20
2022-10-31T01:11:12.876Z,64.20
2022-10-31T01:13:42.889Z,60.80
2022-10-31T01:16:18.689Z,63.80
2022-10-31T01:18:47.324Z,65.20
2022-10-31T01:21:18.707Z,63.30
2022-10-31T01:23:46.957Z,67.60
2022-10-31T01:26:19.223Z,71.40
2022-10-31T01:28:53.140Z,71.40
2022-10-31T01:31:23.251Z,72.00
2022-10-31T01:33:51.528Z,72.80
2022-10-31T01:36:24.237Z,67.80
2022-10-31T01:38:54.636Z,72.70
2022-10-31T01:41:25.414Z,76.10
2022-10-31T01:44:02.065Z,79.70
2022-10-31T01:46:35.451Z,75.60
2022-10-31T01:49:10.682Z,78.70
2022-10-31T01:51:45.906Z,80.90
2022-10-31T01:54:17.108Z,83.20
2022-10-31T01:56:50.374Z,84.30
2022-10-31T01:59:21.903Z,83.40
2022-10-31T02:01:51.979Z,83.30
2022-10-31T02:04:21.746Z,80.90
2022-10-31T02:06:59.555Z,77.60
2022-10-31T02:09:28.233Z,78.50
2022-10-31T02:11:58.872Z,78.40
2022-10-31T02:14:30.273Z,78.90
2022-10-31T02:16:59.024Z,89.50
2022-10-31T02:19:55.631Z,88.30
2022-10-31T02:22:49.013Z,90.80
2022-10-31T02:25:38.986Z,82.40
2022-10-31T02:28:28.482Z,76.70
2022-10-31T02:31:26.754Z,83.40
2022-10-31T02:33:56.643Z,76.30
2022-10-31T02:36:39.893Z,82.10
2022-10-31T02:39:18.208Z,87.00
2022-10-31T02:42:33.489Z,96.60
2022-10-31T02:45:27.164Z,90.70
2022-10-31T02:48:00.187Z,89.80
2022-10-31T02:50:35.251Z,69.70
2022-10-31T02:53:04.687Z,70.20
2022-10-31T02:55:35.728Z,73.40
2022-10-31T02:58:11.899Z,73.60
2022-10-31T03:00:58.032Z,65.70
2022-10-31T03:03:45.935Z,62.60
2022-10-31T03:06:47.008Z,65.90
2022-10-31T03:09:26.000Z,63.20
2022-10-31T03:12:04.003Z,66.70
2022-10-31T03:14:42.096Z,56.70
2022-10-31T03:17:26.471Z,61.30
2022-10-31T03:19:59.349Z,63.50
2022-10-31T03:22:32.252Z,66.40
2022-10-31T03:25:03.987Z,58.60
2022-10-31T03:27:35.487Z,59.20
2022-10-31T03:30:08.934Z,57.10
2022-10-31T03:32:58.873Z,61.30
2022-10-31T03:35:29.569Z,52.60
2022-10-31T03:38:04.196Z,49.90
2022-10-31T03:40:39.323Z,42.50
2022-10-31T03:43:11.668Z,40.10
2022-10-31T03:45:44.249Z,42.20
2022-10-31T03:48:16.192Z,41.10
2022-10-31T03:51:02.979Z,36.20
2022-10-31T03:53:38.109Z,36.70
2022-10-31T03:56:18.078Z,36.40
2022-10-31T03:58:59.428Z,45.10
2022-10-31T04:01:32.517Z,39.90
2022-10-31T04:04:02.840Z,40.20
2022-10-31T04:06:32.212Z,39.30
2022-10-31T04:09:05.228Z,43.90
2022-10-31T04:11:38.010Z,41.30
2022-10-31T04:14:33.681Z,44.90
2022-10-31T04:17:06.237Z,46.90
2022-10-31T04:19:37.560Z,41.30
2022-10-31T04:22:05.425Z,41.00
2022-10-31T04:24:33.115Z,44.70
2022-10-31T04:27:01.272Z,44.80
2022-10-31T04:29:29.729Z,40.90
2022-10-31T04:31:57.813Z,36.70
2022-10-31T04:34:26.341Z,34.00
2022-10-31T04:36:54.276Z,36.20
2022-10-31T04:39:26.614Z,43.70
2022-10-31T04:42:14.961Z,39.40
2022-10-31T04:44:42.958Z,37.90
2022-10-31T04:47:10.826Z,44.20
2022-10-31T04:49:38.616Z,38.20
2022-10-31T04:52:07.113Z,41.00
2022-10-31T04:54:34.879Z,46.40
2022-10-31T04:57:45.506Z,52.30
2022-10-31T05:00:16.755Z,54.80
2022-10-31T05:02:51.071Z,51.90
2022-10-31T05:05:21.600Z,47.50
2022-10-31T05:07:51.011Z,48.00
2022-10-31T05:10:28.194Z,49.60
2022-10-31T05:13:00.267Z,47.20
2022-10-31T05:15:54.576Z,53.90
2022-10-31T05:18:22.674Z,60.70
2022-10-31T05:21:13.481Z,49.60
2022-10-31T05:23:53.336Z,49.20
2022-10-31T05:26:21.956Z,43.90
2022-10-31T05:28:49.927Z,49.00
2022-10-31T05:31:17.828Z,52.20
2022-10-31T05:33:45.866Z,51.30
2022-10-31T05:36:32.370Z,72.90
2022-10-31T05:39:10.172Z,146.00
2022-10-31T05:41:42.952Z,139.60
2022-10-31T05:44:21.560Z,55.20
2022-10-31T05:47:01.121Z,44.50
2022-10-31T05:49:48.810Z,45.20
2022-10-31T05:52:35.773Z,46.60
2022-10-31T05:55:09.858Z,46.10
2022-10-31T05:57:38.356Z,50.00
2022-10-31T06:00:07.356Z,52.10
2022-10-31T06:02:49.554Z,44.40
2022-10-31T06:05:34.525Z,33.10
2022-10-31T06:08:03.133Z,27.30
2022-10-31T06:10:31.631Z,25.90
2022-10-31T06:12:59.595Z,25.60
2022-10-31T06:15:38.474Z,23.00
2022-10-31T06:18:07.795Z,23.10
2022-10-31T06:20:39.236Z,26.50
2022-10-31T06:23:07.515Z,25.20
2022-10-31T06:25:36.715Z,27.20
2022-10-31T06:28:06.735Z,28.90
2022-10-31T06:30:46.784Z,31.20
2022-10-31T06:33:14.752Z,33.80
2022-10-31T06:35:48.866Z,37.20
2022-10-31T06:38:17.392Z,33.10
2022-10-31T06:40:48.082Z,41.00
2022-10-31T06:43:19.418Z,45.20
2022-10-31T06:45:48.120Z,46.30
2022-10-31T06:48:28.693Z,67.10
2022-10-31T06:51:19.461Z,56.40
2022-10-31T06:53:47.419Z,47.20
2022-10-31T06:56:17.375Z,45.90
2022-10-31T06:58:51.142Z,59.00
2022-10-31T07:01:24.468Z,68.40
2022-10-31T07:03:52.654Z,66.10
2022-10-31T07:06:21.161Z,58.80
2022-10-31T07:08:49.853Z,56.30
2022-10-31T07:11:17.657Z,59.60
2022-10-31T07:13:46.181Z,55.00
2022-10-31T07:16:15.062Z,37.90
2022-10-31T07:18:44.736Z,28.70
2022-10-31T07:21:13.186Z,24.30
2022-10-31T07:23:41.223Z,26.40
2022-10-31T07:26:29.264Z,22.70
2022-10-31T07:28:57.295Z,25.50
2022-10-31T07:31:26.628Z,23.60
2022-10-31T07:33:55.915Z,31.00
2022-10-31T07:36:29.429Z,42.50
2022-10-31T07:39:03.398Z,36.40
2022-10-31T07:41:32.279Z,37.10
2022-10-31T07:44:00.172Z,34.50
2022-10-31T07:46:47.831Z,26.30
2022-10-31T07:49:34.323Z,28.30
2022-10-31T07:52:26.617Z,27.30
2022-10-31T07:55:26.977Z,31.10
2022-10-31T07:57:59.252Z,29.70
2022-10-31T08:00:28.481Z,26.70
2022-10-31T08:03:06.009Z,25.70
2022-10-31T08:05:52.988Z,29.20
2022-10-31T08:08:33.399Z,24.40
2022-10-31T08:11:04.119Z,21.10
2022-10-31T08:13:31.908Z,21.60
2022-10-31T08:16:04.750Z,23.40
2022-10-31T08:18:35.055Z,19.80
2022-10-31T08:21:04.411Z,22.90
2022-10-31T08:23:32.145Z,23.70
2022-10-31T08:25:59.989Z,21.60
2022-10-31T08:28:27.769Z,23.80
2022-10-31T08:30:55.756Z,24.40
2022-10-31T08:33:46.788Z,26.10
2022-10-31T08:36:21.715Z,29.10
2022-10-31T08:39:04.349Z,28.80
2022-10-31T08:41:32.319Z,29.80
2022-10-31T08:44:01.217Z,30.80
2022-10-31T08:46:29.194Z,30.40
2022-10-31T08:48:57.078Z,31.90
2022-10-31T08:51:24.926Z,34.30
2022-10-31T08:53:55.246Z,40.00
2022-10-31T08:56:35.436Z,36.50
2022-10-31T08:59:05.671Z,33.10
2022-10-31T09:01:46.334Z,41.30
2022-10-31T09:04:14.212Z,40.00
2022-10-31T09:06:50.300Z,37.60
2022-10-31T09:09:29.255Z,38.40
2022-10-31T09:11:56.963Z,33.00
2022-10-31T09:14:24.678Z,37.00
2022-10-31T09:17:11.516Z,32.00
2022-10-31T09:19:53.829Z,27.70
2022-10-31T09:22:28.348Z,28.10
2022-10-31T09:24:56.223Z,27.90
2022-10-31T09:27:24.220Z,27.10
2022-10-31T09:29:53.384Z,23.90
2022-10-31T09:32:21.255Z,26.30
2022-10-31T09:34:48.956Z,28.00
2022-10-31T09:37:20.467Z,32.70
2022-10-31T09:39:48.266Z,26.40
2022-10-31T09:42:21.264Z,25.40
2022-10-31T09:44:58.297Z,28.90
2022-10-31T09:47:56.379Z,24.20
2022-10-31T09:50:45.341Z,23.40
2022-10-31T09:54:05.850Z,26.60
2022-10-31T09:56:34.203Z,21.60
2022-10-31T09:59:05.469Z,25.00
2022-10-31T10:01:56.649Z,24.40
2022-10-31T10:04:54.281Z,25.00
2022-10-31T10:07:40.091Z,25.70
2022-10-31T10:10:52.288Z,20.90
2022-10-31T10:14:04.905Z,23.80
2022-10-31T10:17:00.700Z,23.20
2022-10-31T10:19:40.082Z,25.10
2022-10-31T10:22:52.430Z,23.10
2022-10-31T10:25:45.394Z,25.60
2022-10-31T10:28:30.175Z,19.80
2022-10-31T10:31:03.629Z,25.80
2022-10-31T10:33:39.508Z,24.80
2022-10-31T10:36:19.351Z,27.20
2022-10-31T10:39:01.794Z,25.90
2022-10-31T10:41:34.639Z,28.10
2022-10-31T10:44:09.813Z,25.10
2022-10-31T10:47:11.413Z,24.90
2022-10-31T10:49:52.915Z,24.00
2022-10-31T10:52:43.381Z,22.20
2022-10-31T10:55:44.370Z,22.30
2022-10-31T10:58:12.164Z,25.60
2022-10-31T11:00:47.593Z,24.50
2022-10-31T11:03:17.802Z,26.10
2022-10-31T11:05:54.988Z,26.40
2022-10-31T11:08:32.072Z,25.20
2022-10-31T11:11:09.168Z,24.10
2022-10-31T11:13:37.749Z,25.70
2022-10-31T11:16:09.001Z,23.80
2022-10-31T11:18:46.563Z,21.10
2022-10-31T11:21:29.925Z,20.60
2022-10-31T11:24:09.910Z,21.50
2022-10-31T11:26:40.464Z,20.80
2022-10-31T11:29:27.078Z,19.20
2022-10-31T11:31:58.739Z,24.60
2022-10-31T11:34:46.926Z,25.00
2022-10-31T11:37:18.203Z,20.30
2022-10-31T11:39:54.524Z,21.90
2022-10-31T11:42:25.498Z,23.50
2022-10-31T11:44:55.058Z,23.10
2022-10-31T11:47:29.829Z,25.30
2022-10-31T11:49:58.939Z,21.60
2022-10-31T11:52:29.740Z,26.50
2022-10-31T11:55:15.105Z,22.60
2022-10-31T11:57:54.872Z,26.90
2022-10-31T12:00:24.480Z,25.30
2022-10-31T12:03:04.998Z,24.30
2022-10-31T12:05:34.049Z,20.80
2022-10-31T12:08:04.431Z,24.30
2022-10-31T12:10:41.789Z,28.30
2022-10-31T12:13:21.400Z,26.60
2022-10-31T12:16:00.314Z,23.20
2022-10-31T12:18:34.392Z,25.30
2022-10-31T12:21:14.547Z,26.60
2022-10-31T12:24:01.085Z,20.40
2022-10-31T12:26:46.674Z,44.60
2022-10-31T12:32:19.361Z,25.50
2022-10-31T12:35:11.935Z,20.00
2022-10-31T12:37:58.152Z,27.80
2022-10-31T12:40:51.768Z,25.20
2022-10-31T12:43:41.702Z,24.30
2022-10-31T12:46:22.734Z,21.70
2022-10-31T12:48:57.401Z,25.40
2022-10-31T12:52:01.441Z,27.90
2022-10-31T12:55:05.834Z,19.70
2022-10-31T12:57:43.446Z,24.10
2022-10-31T13:00:17.174Z,22.40
2022-10-31T13:03:26.679Z,30.60
2022-10-31T13:06:03.219Z,33.00
2022-10-31T13:08:41.768Z,27.50
2022-10-31T13:11:26.841Z,27.40
2022-10-31T13:14:06.668Z,24.30
2022-10-31T13:16:38.303Z,22.30
2022-10-31T13:19:17.306Z,28.10
2022-10-31T13:22:01.487Z,25.60
2022-10-31T13:24:37.448Z,22.10
2022-10-31T13:27:15.760Z,24.20
2022-10-31T13:30:13.403Z,23.50
2022-10-31T13:32:59.805Z,23.90
2022-10-31T13:35:27.869Z,26.50
2022-10-31T13:38:12.261Z,33.70
2022-10-31T13:40:49.076Z,75.70
2022-10-31T13:43:46.527Z,65.50
2022-10-31T13:46:26.952Z,34.70
2022-10-31T13:48:54.709Z,44.10
2022-10-31T13:51:29.476Z,120.80
2022-10-31T13:54:02.100Z,372.00
2022-10-31T13:56:35.119Z,118.90
2022-10-31T13:59:12.944Z,67.20
2022-10-31T14:01:49.667Z,40.90
2022-10-31T14:04:34.866Z,32.10
2022-10-31T14:07:12.254Z,52.10
2022-10-31T14:09:55.726Z,44.60
2022-10-31T14:12:44.166Z,43.60
2022-10-31T14:15:29.074Z,42.40
2022-10-31T14:18:01.604Z,38.10
2022-10-31T14:20:36.170Z,35.10
2022-10-31T14:23:29.579Z,33.10
2022-10-31T14:26:27.443Z,27.60
2022-10-31T14:28:57.792Z,24.60
2022-10-31T14:31:38.083Z,32.00
2022-10-31T14:34:27.102Z,39.10
2022-10-31T14:37:19.709Z,27.00
2022-10-31T14:40:14.575Z,30.10
2022-10-31T14:42:54.590Z,29.70
2022-10-31T14:45:48.979Z,29.50
2022-10-31T14:48:35.822Z,31.70
2022-10-31T14:51:11.543Z,34.70
2022-10-31T14:53:55.311Z,31.20
2022-10-31T14:56:30.295Z,36.10
2022-10-31T14:59:03.522Z,34.60
2022-10-31T15:01:37.789Z,31.50
2022-10-31T15:04:28.168Z,36.10
2022-10-31T15:07:06.471Z,31.50
2022-10-31T15:09:37.921Z,38.80
2022-10-31T15:12:40.980Z,35.30
2022-10-31T15:15:17.906Z,35.90
2022-10-31T15:17:50.354Z,33.40
2022-10-31T15:20:21.287Z,39.60
2022-10-31T15:22:49.566Z,40.40
2022-10-31T15:25:23.607Z,43.20
2022-10-31T15:27:53.566Z,37.40
2022-10-31T15:30:24.148Z,30.40
2022-10-31T15:32:58.140Z,33.80
2022-10-31T15:35:30.263Z,31.80
2022-10-31T15:38:00.571Z,34.90
2022-10-31T15:40:29.341Z,39.40
2022-10-31T15:43:05.688Z,40.80
2022-10-31T15:45:33.769Z,50.30
2022-10-31T15:48:05.612Z,44.80
2022-10-31T15:50:41.626Z,41.20
2022-10-31T15:53:23.466Z,41.20
2022-10-31T15:55:58.640Z,41.00
2022-10-31T15:58:29.361Z,55.10
2022-10-31T16:01:06.119Z,46.30
2022-10-31T16:03:35.204Z,41.60
2022-10-31T16:06:05.740Z,43.60
2022-10-31T16:08:51.535Z,48.00
2022-10-31T16:11:39.987Z,36.90
2022-10-31T16:14:23.178Z,48.40
2022-10-31T16:19:28.365Z,42.20
2022-10-31T16:22:36.659Z,34.70
2022-10-31T16:25:13.780Z,44.30
2022-10-31T16:27:53.865Z,58.10
2022-10-31T16:30:41.697Z,58.70
2022-10-31T16:33:31.964Z,52.60
2022-10-31T16:36:29.857Z,47.80
2022-10-31T16:38:51.571Z,42.80
2022-10-31T16:41:20.446Z,35.70
2022-10-31T16:43:52.270Z,34.10
2022-10-31T16:46:24.675Z,40.40
2022-10-31T16:48:53.006Z,45.60
2022-10-31T16:51:21.202Z,45.90
2022-10-31T16:53:53.100Z,55.80
2022-10-31T16:56:35.199Z,58.60
2022-10-31T16:59:05.523Z,54.20
2022-10-31T17:01:33.960Z,56.70
2022-10-31T17:04:01.996Z,68.00
2022-10-31T17:06:29.794Z,75.90
2022-10-31T17:08:57.625Z,77.80
2022-10-31T17:11:27.226Z,67.90
2022-10-31T17:13:57.045Z,62.60
2022-10-31T17:16:24.799Z,69.40
2022-10-31T17:18:52.573Z,70.10
2022-10-31T17:21:23.319Z,69.40
2022-10-31T17:23:51.180Z,59.50
2022-10-31T17:26:19.940Z,51.90
2022-10-31T17:28:47.687Z,40.90
2022-10-31T17:31:24.493Z,45.90
2022-10-31T17:34:01.834Z,46.40
2022-10-31T17:36:33.202Z,33.60
2022-10-31T17:39:01.577Z,31.90
2022-10-31T17:41:29.472Z,32.90
2022-10-31T17:43:58.349Z,29.20
2022-10-31T17:46:26.516Z,63.70
2022-10-31T17:48:54.444Z,47.80
2022-10-31T17:51:22.313Z,54.80
2022-10-31T17:53:50.091Z,57.40
2022-10-31T17:56:17.841Z,88.20
2022-10-31T17:58:45.952Z,92.50
2022-10-31T18:01:15.908Z,98.00
2022-10-31T18:03:43.936Z,101.40
2022-10-31T18:06:14.571Z,66.20
2022-10-31T18:08:44.005Z,67.40
2022-10-31T18:11:19.883Z,77.40
2022-10-31T18:13:47.704Z,72.80
2022-10-31T18:16:19.280Z,69.00
2022-10-31T18:18:52.424Z,72.00
2022-10-31T18:21:20.882Z,73.60
2022-10-31T18:23:48.738Z,112.90
2022-10-31T18:26:16.658Z,85.20
2022-10-31T18:28:44.422Z,152.40
2022-10-31T18:31:12.264Z,138.50
2022-10-31T18:33:42.608Z,109.20
2022-10-31T18:36:12.174Z,113.70
2022-10-31T18:38:45.065Z,126.30
2022-10-31T18:41:14.091Z,175.50
2022-10-31T18:43:42.696Z,139.30
2022-10-31T18:46:14.352Z,138.10
2022-10-31T18:48:44.164Z,111.10
2022-10-31T18:51:14.648Z,173.00
2022-10-31T18:53:42.554Z,205.50
2022-10-31T18:56:11.448Z,144.00
2022-10-31T18:58:39.213Z,138.10
2022-10-31T19:01:08.890Z,181.50
2022-10-31T19:03:38.031Z,154.90
2022-10-31T19:06:07.107Z,131.80
2022-10-31T19:08:36.231Z,105.60
2022-10-31T19:11:14.725Z,107.80
2022-10-31T19:13:43.950Z,113.60
2022-10-31T19:16:14.539Z,117.20
2022-10-31T19:18:44.287Z,112.90
2022-10-31T19:21:15.304Z,113.40
2022-10-31T19:23:45.073Z,115.20
2022-10-31T19:26:14.020Z,152.20
2022-10-31T19:28:42.191Z,100.50
2022-10-31T19:31:10.811Z,80.40
2022-10-31T19:33:39.053Z,66.80
2022-10-31T19:36:12.190Z,105.10
2022-10-31T19:38:42.492Z,65.30
2022-10-31T19:41:13.421Z,52.00
2022-10-31T19:43:42.202Z,52.30
2022-10-31T19:46:22.206Z,51.20
2022-10-31T19:48:55.951Z,44.70
2022-10-31T19:51:23.694Z,57.40
2022-10-31T19:53:52.320Z,57.40
2022-10-31T19:56:22.345Z,69.60
2022-10-31T19:58:50.409Z,47.70
2022-10-31T20:01:20.803Z,49.10
2022-10-31T20:03:50.368Z,50.90
2022-10-31T20:06:36.835Z,50.80
2022-10-31T20:09:09.796Z,36.50
2022-10-31T20:11:39.144Z,36.10
2022-10-31T20:14:08.589Z,35.80
2022-10-31T20:16:36.591Z,47.70
2022-10-31T20:19:04.766Z,43.60
2022-10-31T20:21:36.598Z,70.70
2022-10-31T20:24:07.357Z,65.80
2022-10-31T20:26:35.729Z,47.10
2022-10-31T20:29:04.026Z,39.40
2022-10-31T20:31:34.652Z,49.50
2022-10-31T20:34:02.767Z,40.20
2022-10-31T20:36:31.047Z,57.30
2022-10-31T20:39:00.301Z,59.90
2022-10-31T20:41:28.270Z,45.10
2022-10-31T20:43:56.049Z,53.90
2022-10-31T20:46:26.329Z,42.00
2022-10-31T20:48:54.929Z,42.00
2022-10-31T20:51:25.711Z,43.00
2022-10-31T20:53:55.587Z,72.30
2022-10-31T20:56:25.944Z,47.20
2022-10-31T20:58:55.351Z,47.90
2022-10-31T21:01:29.467Z,42.70
2022-10-31T21:03:58.748Z,37.40
2022-10-31T21:06:27.798Z,52.40
2022-10-31T21:08:56.837Z,40.10
2022-10-31T21:11:26.758Z,36.00
2022-10-31T21:13:54.646Z,41.20
2022-10-31T21:16:25.799Z,39.90
2022-10-31T21:18:54.583Z,50.20
2022-10-31T21:21:28.985Z,33.80
2022-10-31T21:24:02.318Z,47.30
2022-10-31T21:26:36.477Z,62.10
2022-10-31T21:29:06.082Z,83.30
2022-10-31T21:31:36.205Z,43.60
2022-10-31T21:34:04.016Z,36.60
2022-10-31T21:36:32.569Z,43.30
2022-10-31T21:39:00.823Z,44.20
2022-10-31T21:41:28.736Z,53.30
2022-10-31T21:43:56.527Z,55.70
2022-10-31T21:46:30.419Z,54.00
2022-10-31T21:48:59.212Z,45.00
2022-10-31T21:51:36.176Z,41.10
2022-10-31T21:54:23.145Z,50.40
2022-10-31T21:56:51.789Z,36.40
2022-10-31T21:59:19.596Z,35.80
2022-10-31T22:01:47.461Z,30.50
2022-10-31T22:04:15.667Z,30.10
2022-10-31T22:06:43.663Z,32.60
2022-10-31T22:09:13.623Z,36.60
2022-10-31T22:11:42.887Z,32.90
2022-10-31T22:14:13.087Z,31.40
2022-10-31T22:16:41.664Z,30.20
2022-10-31T22:19:11.867Z,32.30
2022-10-31T22:21:43.667Z,28.80
2022-10-31T22:24:12.180Z,31.60
2022-10-31T22:26:40.145Z,29.80
2022-10-31T22:29:12.280Z,34.10
2022-10-31T22:31:42.775Z,29.00
2022-10-31T22:34:11.870Z,41.90
2022-10-31T22:36:39.840Z,35.30
2022-10-31T22:39:08.199Z,32.60
2022-10-31T22:41:37.004Z,31.50
2022-10-31T22:44:05.718Z,31.60
2022-10-31T22:46:36.349Z,33.30
2022-10-31T22:49:07.402Z,29.60
2022-10-31T22:51:38.034Z,33.50
2022-10-31T22:54:09.820Z,31.50
2022-10-31T22:56:38.507Z,32.50
2022-10-31T22:59:06.725Z,26.90
2022-10-31T23:01:34.800Z,31.00
2022-10-31T23:04:03.260Z,28.80
2022-10-31T23:06:33.198Z,34.60
2022-10-31T23:09:03.355Z,34.00
2022-10-31T23:11:37.933Z,32.00
2022-10-31T23:14:10.945Z,37.40
2022-10-31T23:16:48.027Z,29.30
2022-10-31T23:19:27.947Z,36.90
2022-10-31T23:22:00.395Z,29.80
2022-10-31T23:24:32.096Z,36.60
2022-10-31T23:27:10.490Z,27.90
2022-10-31T23:29:50.356Z,26.90
2022-10-31T23:32:32.618Z,28.70
2022-10-31T23:35:05.209Z,28.50
2022-10-31T23:37:35.298Z,30.90
2022-10-31T23:40:03.743Z,31.70
2022-10-31T23:42:31.606Z,30.60
2022-10-31T23:44:59.463Z,31.10
2022-10-31T23:47:27.375Z,27.90
2022-10-31T23:49:55.413Z,31.60
2022-10-31T23:52:23.424Z,39.80
2022-10-31T23:54:51.286Z,37.50
2022-10-31T23:57:19.118Z,32.30
2022-10-31T23:59:48.131Z,30.30
